sensor_id;sensor_type;location;lat;lon;timestamp;pressure;altitude;pressure_sealevel;temperature;humidity
66396;BME280;53207;51.378;-1.342;2023-02-18T00:01:41;100967.67;;;19.74;39.69
66396;BME280;53207;51.378;-1.342;2023-02-18T00:04:08;100968.34;;;19.72;39.58
66396;BME280;53207;51.378;-1.342;2023-02-18T00:06:36;100969.22;;;20.05;39.70
66396;BME280;53207;51.378;-1.342;2023-02-18T00:09:04;100971.29;;;19.61;39.45
66396;BME280;53207;51.378;-1.342;2023-02-18T00:11:34;100973.23;;;19.66;39.17
66396;BME280;53207;51.378;-1.342;2023-02-18T00:14:04;100974.04;;;19.70;39.37
66396;BME280;53207;51.378;-1.342;2023-02-18T00:16:31;100970.00;;;19.98;39.17
66396;BME280;53207;51.378;-1.342;2023-02-18T00:19:00;100966.36;;;19.56;39.04
66396;BME280;53207;51.378;-1.342;2023-02-18T00:21:28;100969.83;;;19.47;39.08
66396;BME280;53207;51.378;-1.342;2023-02-18T00:23:56;100978.60;;;19.65;38.74
66396;BME280;53207;51.378;-1.342;2023-02-18T00:26:23;100966.74;;;19.45;38.96
66396;BME280;53207;51.378;-1.342;2023-02-18T00:28:51;100969.93;;;20.03;38.64
66396;BME280;53207;51.378;-1.342;2023-02-18T00:31:21;100954.86;;;19.75;38.60
66396;BME280;53207;51.378;-1.342;2023-02-18T00:33:49;100962.36;;;19.75;38.63
66396;BME280;53207;51.378;-1.342;2023-02-18T00:36:18;100964.66;;;19.66;38.61
66396;BME280;53207;51.378;-1.342;2023-02-18T00:38:47;100957.69;;;19.65;38.57
66396;BME280;53207;51.378;-1.342;2023-02-18T00:41:15;100957.68;;;19.52;38.39
66396;BME280;53207;51.378;-1.342;2023-02-18T00:43:43;100960.46;;;20.03;38.22
66396;BME280;53207;51.378;-1.342;2023-02-18T00:46:11;100956.71;;;19.53;38.52
66396;BME280;53207;51.378;-1.342;2023-02-18T00:48:39;100959.92;;;19.54;38.50
66396;BME280;53207;51.378;-1.342;2023-02-18T00:51:06;100952.47;;;19.69;38.25
66396;BME280;53207;51.378;-1.342;2023-02-18T00:53:34;100944.73;;;19.91;38.17
66396;BME280;53207;51.378;-1.342;2023-02-18T00:56:02;100940.22;;;19.78;38.29
66396;BME280;53207;51.378;-1.342;2023-02-18T00:58:30;100938.80;;;19.77;38.23
66396;BME280;53207;51.378;-1.342;2023-02-18T01:00:57;100944.12;;;19.74;38.25
66396;BME280;53207;51.378;-1.342;2023-02-18T01:03:25;100942.90;;;19.76;38.16
66396;BME280;53207;51.378;-1.342;2023-02-18T01:05:52;100942.11;;;19.43;38.27
66396;BME280;53207;51.378;-1.342;2023-02-18T01:08:21;100946.04;;;19.79;38.05
66396;BME280;53207;51.378;-1.342;2023-02-18T01:10:54;100944.48;;;19.72;38.10
66396;BME280;53207;51.378;-1.342;2023-02-18T01:13:21;100944.21;;;19.73;37.99
66396;BME280;53207;51.378;-1.342;2023-02-18T01:15:49;100953.17;;;19.68;38.06
66396;BME280;53207;51.378;-1.342;2023-02-18T01:18:17;100961.30;;;19.75;37.90
66396;BME280;53207;51.378;-1.342;2023-02-18T01:20:44;100964.30;;;19.67;37.97
66396;BME280;53207;51.378;-1.342;2023-02-18T01:23:13;100966.71;;;19.73;37.82
66396;BME280;53207;51.378;-1.342;2023-02-18T01:25:41;100967.10;;;19.47;37.87
66396;BME280;53207;51.378;-1.342;2023-02-18T01:28:10;100969.81;;;19.30;37.75
66396;BME280;53207;51.378;-1.342;2023-02-18T01:30:38;100977.39;;;19.22;37.81
66396;BME280;53207;51.378;-1.342;2023-02-18T01:33:07;100956.18;;;19.49;37.74
66396;BME280;53207;51.378;-1.342;2023-02-18T01:35:37;100954.53;;;19.55;37.60
66396;BME280;53207;51.378;-1.342;2023-02-18T01:38:05;100952.06;;;19.56;37.55
66396;BME280;53207;51.378;-1.342;2023-02-18T01:40:33;100947.69;;;19.69;37.62
66396;BME280;53207;51.378;-1.342;2023-02-18T01:43:01;100942.54;;;19.26;37.58
66396;BME280;53207;51.378;-1.342;2023-02-18T01:45:55;100943.17;;;19.47;37.58
66396;BME280;53207;51.378;-1.342;2023-02-18T01:48:24;100939.35;;;19.46;37.55
66396;BME280;53207;51.378;-1.342;2023-02-18T01:50:57;100933.22;;;19.24;37.50
66396;BME280;53207;51.378;-1.342;2023-02-18T01:53:30;100933.85;;;19.42;37.54
66396;BME280;53207;51.378;-1.342;2023-02-18T01:55:59;100941.24;;;19.64;37.50
66396;BME280;53207;51.378;-1.342;2023-02-18T01:58:30;100936.01;;;19.68;37.43
66396;BME280;53207;51.378;-1.342;2023-02-18T02:00:58;100929.47;;;19.46;37.37
66396;BME280;53207;51.378;-1.342;2023-02-18T02:03:25;100929.52;;;19.30;37.57
66396;BME280;53207;51.378;-1.342;2023-02-18T02:05:52;100928.43;;;19.64;37.39
66396;BME280;53207;51.378;-1.342;2023-02-18T02:08:20;100927.82;;;19.62;37.38
66396;BME280;53207;51.378;-1.342;2023-02-18T02:10:59;100924.26;;;19.57;37.43
66396;BME280;53207;51.378;-1.342;2023-02-18T02:13:40;100926.38;;;19.34;37.40
66396;BME280;53207;51.378;-1.342;2023-02-18T02:16:14;100923.03;;;19.59;37.32
66396;BME280;53207;51.378;-1.342;2023-02-18T02:18:56;100923.44;;;19.23;37.46
66396;BME280;53207;51.378;-1.342;2023-02-18T02:21:53;100924.10;;;19.59;37.27
66396;BME280;53207;51.378;-1.342;2023-02-18T02:25:11;100919.70;;;19.50;37.35
66396;BME280;53207;51.378;-1.342;2023-02-18T02:28:03;100910.16;;;19.47;37.37
66396;BME280;53207;51.378;-1.342;2023-02-18T02:30:48;100900.95;;;19.25;37.34
66396;BME280;53207;51.378;-1.342;2023-02-18T02:33:41;100900.00;;;19.28;37.29
66396;BME280;53207;51.378;-1.342;2023-02-18T02:36:15;100896.02;;;19.21;37.33
66396;BME280;53207;51.378;-1.342;2023-02-18T02:38:54;100894.51;;;19.23;37.27
66396;BME280;53207;51.378;-1.342;2023-02-18T02:41:32;100895.32;;;19.30;37.15
66396;BME280;53207;51.378;-1.342;2023-02-18T02:44:12;100891.13;;;19.49;37.16
66396;BME280;53207;51.378;-1.342;2023-02-18T02:46:46;100896.61;;;19.47;37.17
66396;BME280;53207;51.378;-1.342;2023-02-18T02:49:25;100888.78;;;19.48;37.12
66396;BME280;53207;51.378;-1.342;2023-02-18T02:51:58;100885.64;;;19.45;37.13
66396;BME280;53207;51.378;-1.342;2023-02-18T02:54:28;100878.41;;;19.36;37.22
66396;BME280;53207;51.378;-1.342;2023-02-18T02:57:45;100872.49;;;19.40;37.14
66396;BME280;53207;51.378;-1.342;2023-02-18T03:00:15;100859.42;;;19.37;37.17
66396;BME280;53207;51.378;-1.342;2023-02-18T03:02:56;100859.09;;;19.40;37.10
66396;BME280;53207;51.378;-1.342;2023-02-18T03:05:37;100857.81;;;19.36;37.11
66396;BME280;53207;51.378;-1.342;2023-02-18T03:08:15;100851.93;;;19.39;37.04
66396;BME280;53207;51.378;-1.342;2023-02-18T03:10:49;100837.53;;;19.06;37.14
66396;BME280;53207;51.378;-1.342;2023-02-18T03:13:28;100843.83;;;19.12;37.04
66396;BME280;53207;51.378;-1.342;2023-02-18T03:16:07;100839.15;;;19.33;37.03
66396;BME280;53207;51.378;-1.342;2023-02-18T03:18:42;100837.95;;;19.23;37.10
66396;BME280;53207;51.378;-1.342;2023-02-18T03:21:15;100834.98;;;19.23;37.11
66396;BME280;53207;51.378;-1.342;2023-02-18T03:23:48;100826.32;;;19.27;37.03
66396;BME280;53207;51.378;-1.342;2023-02-18T03:26:20;100815.96;;;19.03;37.03
66396;BME280;53207;51.378;-1.342;2023-02-18T03:28:50;100814.76;;;19.19;37.11
66396;BME280;53207;51.378;-1.342;2023-02-18T03:31:21;100812.40;;;19.21;37.05
66396;BME280;53207;51.378;-1.342;2023-02-18T03:33:54;100812.35;;;19.16;37.10
66396;BME280;53207;51.378;-1.342;2023-02-18T03:36:22;100814.63;;;19.40;37.12
66396;BME280;53207;51.378;-1.342;2023-02-18T03:38:55;100812.98;;;19.12;37.10
66396;BME280;53207;51.378;-1.342;2023-02-18T03:41:25;100809.93;;;19.15;37.03
66396;BME280;53207;51.378;-1.342;2023-02-18T03:43:53;100802.88;;;19.20;36.96
66396;BME280;53207;51.378;-1.342;2023-02-18T03:46:21;100806.86;;;18.64;37.09
66396;BME280;53207;51.378;-1.342;2023-02-18T03:48:48;100806.99;;;19.09;37.05
66396;BME280;53207;51.378;-1.342;2023-02-18T03:51:15;100801.43;;;19.05;37.06
66396;BME280;53207;51.378;-1.342;2023-02-18T03:53:42;100802.45;;;19.10;37.00
66396;BME280;53207;51.378;-1.342;2023-02-18T03:56:10;100806.84;;;19.39;36.93
66396;BME280;53207;51.378;-1.342;2023-02-18T03:58:37;100810.57;;;19.09;36.97
66396;BME280;53207;51.378;-1.342;2023-02-18T04:01:04;100808.41;;;19.29;37.03
66396;BME280;53207;51.378;-1.342;2023-02-18T04:03:32;100811.34;;;18.99;37.05
66396;BME280;53207;51.378;-1.342;2023-02-18T04:06:00;100805.07;;;19.22;37.08
66396;BME280;53207;51.378;-1.342;2023-02-18T04:08:27;100805.82;;;18.90;37.14
66396;BME280;53207;51.378;-1.342;2023-02-18T04:10:54;100816.07;;;18.94;37.07
66396;BME280;53207;51.378;-1.342;2023-02-18T04:13:22;100811.03;;;18.95;37.03
66396;BME280;53207;51.378;-1.342;2023-02-18T04:15:50;100802.13;;;18.99;36.99
66396;BME280;53207;51.378;-1.342;2023-02-18T04:18:18;100807.42;;;18.91;37.05
66396;BME280;53207;51.378;-1.342;2023-02-18T04:20:45;100811.78;;;18.94;36.97
66396;BME280;53207;51.378;-1.342;2023-02-18T04:23:13;100806.06;;;19.01;36.86
66396;BME280;53207;51.378;-1.342;2023-02-18T04:25:40;100812.62;;;18.94;36.97
66396;BME280;53207;51.378;-1.342;2023-02-18T04:28:08;100806.71;;;18.94;36.95
66396;BME280;53207;51.378;-1.342;2023-02-18T04:30:35;100807.94;;;19.20;37.15
66396;BME280;53207;51.378;-1.342;2023-02-18T04:33:03;100809.66;;;19.05;37.08
66396;BME280;53207;51.378;-1.342;2023-02-18T04:35:30;100810.39;;;19.04;37.18
66396;BME280;53207;51.378;-1.342;2023-02-18T04:37:57;100808.39;;;19.04;37.26
66396;BME280;53207;51.378;-1.342;2023-02-18T04:40:30;100807.59;;;19.03;37.32
66396;BME280;53207;51.378;-1.342;2023-02-18T04:42:57;100808.82;;;18.98;37.35
66396;BME280;53207;51.378;-1.342;2023-02-18T04:45:25;100809.72;;;19.03;37.29
66396;BME280;53207;51.378;-1.342;2023-02-18T04:47:53;100806.05;;;19.08;37.24
66396;BME280;53207;51.378;-1.342;2023-02-18T04:50:20;100802.66;;;18.98;37.37
66396;BME280;53207;51.378;-1.342;2023-02-18T04:52:48;100801.05;;;19.02;37.32
66396;BME280;53207;51.378;-1.342;2023-02-18T04:55:15;100798.55;;;19.04;37.30
66396;BME280;53207;51.378;-1.342;2023-02-18T04:57:43;100793.52;;;19.29;37.38
66396;BME280;53207;51.378;-1.342;2023-02-18T05:00:14;100796.24;;;18.93;37.47
66396;BME280;53207;51.378;-1.342;2023-02-18T05:02:42;100800.15;;;19.02;37.30
66396;BME280;53207;51.378;-1.342;2023-02-18T05:05:09;100796.50;;;18.96;37.43
66396;BME280;53207;51.378;-1.342;2023-02-18T05:07:38;100792.53;;;19.27;37.31
66396;BME280;53207;51.378;-1.342;2023-02-18T05:10:07;100794.49;;;18.84;37.53
66396;BME280;53207;51.378;-1.342;2023-02-18T05:12:34;100799.55;;;18.93;37.38
66396;BME280;53207;51.378;-1.342;2023-02-18T05:15:03;100796.26;;;18.89;37.47
66396;BME280;53207;51.378;-1.342;2023-02-18T05:17:30;100794.80;;;18.93;37.39
66396;BME280;53207;51.378;-1.342;2023-02-18T05:19:57;100803.77;;;19.13;37.47
66396;BME280;53207;51.378;-1.342;2023-02-18T05:22:25;100804.65;;;19.09;37.55
66396;BME280;53207;51.378;-1.342;2023-02-18T05:24:52;100811.50;;;19.15;37.43
66396;BME280;53207;51.378;-1.342;2023-02-18T05:27:19;100805.64;;;19.20;37.33
66396;BME280;53207;51.378;-1.342;2023-02-18T05:29:46;100806.14;;;19.08;37.50
66396;BME280;53207;51.378;-1.342;2023-02-18T05:32:14;100800.90;;;18.82;37.48
66396;BME280;53207;51.378;-1.342;2023-02-18T05:34:41;100795.18;;;19.07;37.46
66396;BME280;53207;51.378;-1.342;2023-02-18T05:37:08;100798.75;;;19.13;37.40
66396;BME280;53207;51.378;-1.342;2023-02-18T05:39:36;100799.63;;;18.85;37.46
66396;BME280;53207;51.378;-1.342;2023-02-18T05:42:03;100797.33;;;19.06;37.55
66396;BME280;53207;51.378;-1.342;2023-02-18T05:44:30;100805.77;;;19.18;37.41
66396;BME280;53207;51.378;-1.342;2023-02-18T05:46:58;100800.74;;;18.84;37.57
66396;BME280;53207;51.378;-1.342;2023-02-18T05:49:26;100796.02;;;18.79;37.59
66396;BME280;53207;51.378;-1.342;2023-02-18T05:51:53;100798.45;;;18.86;37.50
66396;BME280;53207;51.378;-1.342;2023-02-18T05:54:20;100783.75;;;18.76;37.65
66396;BME280;53207;51.378;-1.342;2023-02-18T05:56:47;100789.55;;;18.85;37.54
66396;BME280;53207;51.378;-1.342;2023-02-18T05:59:15;100787.12;;;18.72;37.75
66396;BME280;53207;51.378;-1.342;2023-02-18T06:01:42;100787.84;;;18.77;37.59
66396;BME280;53207;51.378;-1.342;2023-02-18T06:04:11;100782.70;;;19.05;37.52
66396;BME280;53207;51.378;-1.342;2023-02-18T06:06:38;100786.45;;;18.65;37.75
66396;BME280;53207;51.378;-1.342;2023-02-18T06:09:07;100788.03;;;18.72;37.64
66396;BME280;53207;51.378;-1.342;2023-02-18T06:11:34;100781.74;;;18.66;37.75
66396;BME280;53207;51.378;-1.342;2023-02-18T06:14:02;100778.43;;;18.68;37.66
66396;BME280;53207;51.378;-1.342;2023-02-18T06:16:30;100784.81;;;18.97;37.63
66396;BME280;53207;51.378;-1.342;2023-02-18T06:18:57;100778.11;;;18.75;37.52
66396;BME280;53207;51.378;-1.342;2023-02-18T06:21:24;100776.09;;;18.64;37.74
66396;BME280;53207;51.378;-1.342;2023-02-18T06:23:51;100789.60;;;18.69;37.69
66396;BME280;53207;51.378;-1.342;2023-02-18T06:26:19;100790.18;;;18.67;37.69
66396;BME280;53207;51.378;-1.342;2023-02-18T06:28:46;100789.23;;;18.96;37.59
66396;BME280;53207;51.378;-1.342;2023-02-18T06:31:13;100787.91;;;18.93;37.68
66396;BME280;53207;51.378;-1.342;2023-02-18T06:33:40;100792.24;;;18.64;37.71
66396;BME280;53207;51.378;-1.342;2023-02-18T06:36:10;100787.70;;;18.66;37.69
66396;BME280;53207;51.378;-1.342;2023-02-18T06:38:39;100799.16;;;18.87;37.86
66396;BME280;53207;51.378;-1.342;2023-02-18T06:41:07;100792.48;;;18.91;37.74
66396;BME280;53207;51.378;-1.342;2023-02-18T06:43:34;100785.86;;;18.57;37.84
66396;BME280;53207;51.378;-1.342;2023-02-18T06:46:01;100786.04;;;18.58;37.78
66396;BME280;53207;51.378;-1.342;2023-02-18T06:48:29;100775.84;;;18.58;37.77
66396;BME280;53207;51.378;-1.342;2023-02-18T06:50:56;100778.55;;;18.61;37.69
66396;BME280;53207;51.378;-1.342;2023-02-18T06:53:23;100778.09;;;19.03;37.82
66396;BME280;53207;51.378;-1.342;2023-02-18T06:55:50;100773.51;;;18.76;37.92
66396;BME280;53207;51.378;-1.342;2023-02-18T06:58:18;100779.56;;;18.77;37.82
66396;BME280;53207;51.378;-1.342;2023-02-18T07:00:45;100775.85;;;18.77;37.82
66396;BME280;53207;51.378;-1.342;2023-02-18T07:03:13;100776.79;;;18.95;37.89
66396;BME280;53207;51.378;-1.342;2023-02-18T07:05:41;100775.75;;;18.72;37.93
66396;BME280;53207;51.378;-1.342;2023-02-18T07:08:08;100779.72;;;18.71;37.89
66396;BME280;53207;51.378;-1.342;2023-02-18T07:10:36;100775.19;;;18.89;37.61
66396;BME280;53207;51.378;-1.342;2023-02-18T07:13:04;100776.08;;;18.93;37.70
66396;BME280;53207;51.378;-1.342;2023-02-18T07:15:32;100780.00;;;19.16;37.87
66396;BME280;53207;51.378;-1.342;2023-02-18T07:17:59;100785.50;;;19.06;38.06
66396;BME280;53207;51.378;-1.342;2023-02-18T07:20:26;100783.57;;;19.21;38.07
66396;BME280;53207;51.378;-1.342;2023-02-18T07:22:54;100781.93;;;19.08;38.07
66396;BME280;53207;51.378;-1.342;2023-02-18T07:25:22;100778.84;;;19.49;37.97
66396;BME280;53207;51.378;-1.342;2023-02-18T07:27:49;100777.18;;;19.42;37.74
66396;BME280;53207;51.378;-1.342;2023-02-18T07:30:17;100781.02;;;19.49;37.65
66396;BME280;53207;51.378;-1.342;2023-02-18T07:32:45;100778.25;;;19.64;37.43
66396;BME280;53207;51.378;-1.342;2023-02-18T07:35:14;100778.18;;;19.55;37.33
66396;BME280;53207;51.378;-1.342;2023-02-18T07:37:44;100787.94;;;19.68;37.28
66396;BME280;53207;51.378;-1.342;2023-02-18T07:40:13;100780.02;;;19.75;37.28
66396;BME280;53207;51.378;-1.342;2023-02-18T07:42:46;100794.51;;;19.91;37.10
66396;BME280;53207;51.378;-1.342;2023-02-18T07:45:14;100798.99;;;20.25;36.94
66396;BME280;53207;51.378;-1.342;2023-02-18T07:47:41;100805.15;;;20.12;36.82
66396;BME280;53207;51.378;-1.342;2023-02-18T07:50:09;100806.34;;;20.40;36.71
66396;BME280;53207;51.378;-1.342;2023-02-18T07:52:36;100799.22;;;20.03;36.61
66396;BME280;53207;51.378;-1.342;2023-02-18T07:55:05;100793.48;;;20.02;36.60
66396;BME280;53207;51.378;-1.342;2023-02-18T07:57:33;100794.07;;;20.02;36.57
66396;BME280;53207;51.378;-1.342;2023-02-18T08:00:00;100796.88;;;20.06;36.50
66396;BME280;53207;51.378;-1.342;2023-02-18T08:02:27;100798.40;;;20.46;36.54
66396;BME280;53207;51.378;-1.342;2023-02-18T08:04:55;100805.56;;;20.02;36.52
66396;BME280;53207;51.378;-1.342;2023-02-18T08:07:22;100806.73;;;19.99;36.54
66396;BME280;53207;51.378;-1.342;2023-02-18T08:09:49;100810.99;;;20.16;36.60
66396;BME280;53207;51.378;-1.342;2023-02-18T08:12:17;100815.53;;;19.98;36.53
66396;BME280;53207;51.378;-1.342;2023-02-18T08:14:44;100816.30;;;20.37;36.59
66396;BME280;53207;51.378;-1.342;2023-02-18T08:17:12;100821.95;;;19.96;36.55
66396;BME280;53207;51.378;-1.342;2023-02-18T08:19:39;100820.02;;;19.95;36.56
66396;BME280;53207;51.378;-1.342;2023-02-18T08:22:06;100817.03;;;20.21;36.52
66396;BME280;53207;51.378;-1.342;2023-02-18T08:24:34;100815.46;;;19.98;36.52
66396;BME280;53207;51.378;-1.342;2023-02-18T08:27:01;100810.43;;;19.99;36.49
66396;BME280;53207;51.378;-1.342;2023-02-18T08:29:28;100813.05;;;20.22;36.48
66396;BME280;53207;51.378;-1.342;2023-02-18T08:31:56;100809.37;;;20.43;36.47
66396;BME280;53207;51.378;-1.342;2023-02-18T08:34:24;100814.22;;;20.07;36.63
66396;BME280;53207;51.378;-1.342;2023-02-18T08:36:51;100816.87;;;20.36;36.59
66396;BME280;53207;51.378;-1.342;2023-02-18T08:39:18;100822.85;;;19.85;36.80
66396;BME280;53207;51.378;-1.342;2023-02-18T08:41:45;100824.61;;;19.86;36.85
66396;BME280;53207;51.378;-1.342;2023-02-18T08:44:13;100827.10;;;19.85;36.94
66396;BME280;53207;51.378;-1.342;2023-02-18T08:46:40;100824.85;;;20.13;36.91
66396;BME280;53207;51.378;-1.342;2023-02-18T08:49:07;100818.47;;;19.76;37.13
66396;BME280;53207;51.378;-1.342;2023-02-18T08:51:35;100823.10;;;19.87;37.05
66396;BME280;53207;51.378;-1.342;2023-02-18T08:54:03;100824.47;;;19.85;37.11
66396;BME280;53207;51.378;-1.342;2023-02-18T08:56:30;100822.86;;;19.78;37.23
66396;BME280;53207;51.378;-1.342;2023-02-18T08:58:58;100823.47;;;19.83;37.30
66396;BME280;53207;51.378;-1.342;2023-02-18T09:01:25;100820.37;;;20.07;37.31
66396;BME280;53207;51.378;-1.342;2023-02-18T09:03:53;100804.54;;;19.89;37.24
66396;BME280;53207;51.378;-1.342;2023-02-18T09:06:20;100806.00;;;20.34;37.24
66396;BME280;53207;51.378;-1.342;2023-02-18T09:08:48;100804.34;;;20.34;37.26
66396;BME280;53207;51.378;-1.342;2023-02-18T09:11:16;100797.35;;;20.33;37.25
66396;BME280;53207;51.378;-1.342;2023-02-18T09:13:45;100794.04;;;20.23;37.41
66396;BME280;53207;51.378;-1.342;2023-02-18T09:16:15;100796.52;;;19.83;37.34
66396;BME280;53207;51.378;-1.342;2023-02-18T09:18:43;100784.59;;;20.31;37.29
66396;BME280;53207;51.378;-1.342;2023-02-18T09:21:12;100782.06;;;19.86;37.30
66396;BME280;53207;51.378;-1.342;2023-02-18T09:23:40;100769.72;;;20.08;37.33
66396;BME280;53207;51.378;-1.342;2023-02-18T09:26:12;100769.03;;;19.91;37.36
66396;BME280;53207;51.378;-1.342;2023-02-18T09:28:40;100779.73;;;20.15;37.42
66396;BME280;53207;51.378;-1.342;2023-02-18T09:31:10;100779.21;;;19.86;37.51
66396;BME280;53207;51.378;-1.342;2023-02-18T09:33:40;100777.83;;;20.16;37.46
66396;BME280;53207;51.378;-1.342;2023-02-18T09:36:08;100785.04;;;20.28;37.34
66396;BME280;53207;51.378;-1.342;2023-02-18T09:38:35;100790.83;;;20.25;37.42
66396;BME280;53207;51.378;-1.342;2023-02-18T09:41:05;100788.30;;;20.07;37.39
66396;BME280;53207;51.378;-1.342;2023-02-18T09:43:37;100797.14;;;20.11;37.34
66396;BME280;53207;51.378;-1.342;2023-02-18T09:46:08;100804.24;;;20.13;37.36
66396;BME280;53207;51.378;-1.342;2023-02-18T09:48:43;100809.72;;;20.24;37.25
66396;BME280;53207;51.378;-1.342;2023-02-18T09:51:13;100818.07;;;20.16;37.43
66396;BME280;53207;51.378;-1.342;2023-02-18T09:53:42;100826.89;;;20.23;37.34
66396;BME280;53207;51.378;-1.342;2023-02-18T09:56:11;100832.11;;;20.30;37.27
66396;BME280;53207;51.378;-1.342;2023-02-18T09:58:40;100824.97;;;20.61;37.17
66396;BME280;53207;51.378;-1.342;2023-02-18T10:01:15;100822.95;;;20.13;37.16
66396;BME280;53207;51.378;-1.342;2023-02-18T10:03:45;100810.24;;;20.12;37.16
66396;BME280;53207;51.378;-1.342;2023-02-18T10:06:17;100808.20;;;20.34;37.24
66396;BME280;53207;51.378;-1.342;2023-02-18T10:08:48;100818.15;;;20.39;37.13
66396;BME280;53207;51.378;-1.342;2023-02-18T10:11:22;100807.52;;;20.40;37.13
66396;BME280;53207;51.378;-1.342;2023-02-18T10:13:53;100803.07;;;20.45;37.10
66396;BME280;53207;51.378;-1.342;2023-02-18T10:16:23;100800.84;;;20.43;37.10
66396;BME280;53207;51.378;-1.342;2023-02-18T10:18:53;100792.54;;;20.19;37.06
66396;BME280;53207;51.378;-1.342;2023-02-18T10:21:24;100788.11;;;20.21;37.09
66396;BME280;53207;51.378;-1.342;2023-02-18T10:23:55;100783.49;;;20.46;37.12
66396;BME280;53207;51.378;-1.342;2023-02-18T10:26:24;100778.29;;;20.43;37.15
66396;BME280;53207;51.378;-1.342;2023-02-18T10:28:51;100783.68;;;20.42;37.14
66396;BME280;53207;51.378;-1.342;2023-02-18T10:31:24;100766.99;;;20.49;37.10
66396;BME280;53207;51.378;-1.342;2023-02-18T10:33:59;100775.86;;;20.46;37.07
66396;BME280;53207;51.378;-1.342;2023-02-18T10:36:35;100778.81;;;20.48;37.13
66396;BME280;53207;51.378;-1.342;2023-02-18T10:39:31;100778.13;;;20.46;37.12
66396;BME280;53207;51.378;-1.342;2023-02-18T10:42:09;100785.43;;;20.52;37.06
66396;BME280;53207;51.378;-1.342;2023-02-18T10:44:48;100791.16;;;20.39;37.22
66396;BME280;53207;51.378;-1.342;2023-02-18T10:47:37;100790.28;;;20.33;37.24
66396;BME280;53207;51.378;-1.342;2023-02-18T10:50:10;100804.69;;;20.48;37.32
66396;BME280;53207;51.378;-1.342;2023-02-18T10:52:42;100813.48;;;20.29;37.27
66396;BME280;53207;51.378;-1.342;2023-02-18T10:55:11;100812.15;;;20.04;37.20
66396;BME280;53207;51.378;-1.342;2023-02-18T10:57:48;100825.46;;;20.03;37.15
66396;BME280;53207;51.378;-1.342;2023-02-18T11:00:18;100832.49;;;20.26;37.14
66396;BME280;53207;51.378;-1.342;2023-02-18T11:03:01;100831.52;;;20.22;37.14
66396;BME280;53207;51.378;-1.342;2023-02-18T11:05:29;100835.07;;;19.86;37.20
66396;BME280;53207;51.378;-1.342;2023-02-18T11:08:06;100833.50;;;20.04;37.25
66396;BME280;53207;51.378;-1.342;2023-02-18T11:10:38;100837.14;;;20.14;37.08
66396;BME280;53207;51.378;-1.342;2023-02-18T11:13:12;100834.68;;;20.02;37.20
66396;BME280;53207;51.378;-1.342;2023-02-18T11:15:54;100825.30;;;19.96;37.24
66396;BME280;53207;51.378;-1.342;2023-02-18T11:18:31;100829.72;;;20.02;37.13
66396;BME280;53207;51.378;-1.342;2023-02-18T11:21:04;100826.52;;;19.99;37.12
66396;BME280;53207;51.378;-1.342;2023-02-18T11:23:45;100831.67;;;19.99;37.07
66396;BME280;53207;51.378;-1.342;2023-02-18T11:26:15;100827.89;;;20.03;37.00
66396;BME280;53207;51.378;-1.342;2023-02-18T11:28:45;100830.85;;;20.03;36.95
66396;BME280;53207;51.378;-1.342;2023-02-18T11:31:21;100832.32;;;20.19;36.98
66396;BME280;53207;51.378;-1.342;2023-02-18T11:33:52;100832.47;;;19.95;36.97
66396;BME280;53207;51.378;-1.342;2023-02-18T11:36:23;100834.52;;;19.80;37.14
66396;BME280;53207;51.378;-1.342;2023-02-18T11:38:54;100837.68;;;19.95;36.91
66396;BME280;53207;51.378;-1.342;2023-02-18T11:41:29;100840.27;;;19.93;36.90
66396;BME280;53207;51.378;-1.342;2023-02-18T11:43:58;100841.40;;;20.04;37.02
66396;BME280;53207;51.378;-1.342;2023-02-18T11:46:26;100838.19;;;19.85;36.95
66396;BME280;53207;51.378;-1.342;2023-02-18T11:48:54;100841.15;;;19.91;36.85
66396;BME280;53207;51.378;-1.342;2023-02-18T11:51:25;100841.57;;;19.70;37.06
66396;BME280;53207;51.378;-1.342;2023-02-18T11:53:57;100842.60;;;19.75;37.01
66396;BME280;53207;51.378;-1.342;2023-02-18T11:56:27;100842.12;;;20.07;36.85
66396;BME280;53207;51.378;-1.342;2023-02-18T11:58:55;100836.65;;;19.97;36.96
66396;BME280;53207;51.378;-1.342;2023-02-18T12:01:32;100839.19;;;19.66;37.03
66396;BME280;53207;51.378;-1.342;2023-02-18T12:04:09;100836.19;;;19.76;36.89
66396;BME280;53207;51.378;-1.342;2023-02-18T12:06:44;100839.02;;;19.71;36.95
66396;BME280;53207;51.378;-1.342;2023-02-18T12:09:21;100833.28;;;19.81;37.09
66396;BME280;53207;51.378;-1.342;2023-02-18T12:11:52;100834.93;;;19.68;36.94
66396;BME280;53207;51.378;-1.342;2023-02-18T12:14:22;100828.13;;;19.86;36.98
66396;BME280;53207;51.378;-1.342;2023-02-18T12:17:08;100829.68;;;19.65;36.95
66396;BME280;53207;51.378;-1.342;2023-02-18T12:19:52;100829.72;;;19.66;36.90
66396;BME280;53207;51.378;-1.342;2023-02-18T12:22:25;100828.30;;;19.69;36.85
66396;BME280;53207;51.378;-1.342;2023-02-18T12:25:06;100825.17;;;19.64;36.90
66396;BME280;53207;51.378;-1.342;2023-02-18T12:27:41;100826.12;;;19.86;36.90
66396;BME280;53207;51.378;-1.342;2023-02-18T12:30:26;100822.93;;;19.57;36.99
66396;BME280;53207;51.378;-1.342;2023-02-18T12:33:07;100817.00;;;19.55;36.99
66396;BME280;53207;51.378;-1.342;2023-02-18T12:35:51;100811.68;;;19.81;36.92
66396;BME280;53207;51.378;-1.342;2023-02-18T12:38:44;100807.82;;;19.58;36.97
66396;BME280;53207;51.378;-1.342;2023-02-18T12:41:32;100812.98;;;19.46;37.12
66396;BME280;53207;51.378;-1.342;2023-02-18T12:44:11;100818.03;;;19.98;37.03
66396;BME280;53207;51.378;-1.342;2023-02-18T12:46:54;100812.75;;;19.92;37.12
66396;BME280;53207;51.378;-1.342;2023-02-18T12:49:42;100810.65;;;19.92;37.09
66396;BME280;53207;51.378;-1.342;2023-02-18T12:52:22;100812.49;;;19.69;37.10
66396;BME280;53207;51.378;-1.342;2023-02-18T12:55:07;100809.23;;;19.56;37.21
66396;BME280;53207;51.378;-1.342;2023-02-18T12:57:42;100806.28;;;19.60;37.16
66396;BME280;53207;51.378;-1.342;2023-02-18T13:00:30;100808.71;;;19.37;37.16